createdAt,value
2023-04-28T00:01:15.354Z,6.82
2023-04-28T00:03:43.702Z,6.87
2023-04-28T00:06:12.307Z,6.92
2023-04-28T00:08:41.481Z,6.94
2023-04-28T00:11:11.122Z,6.96
2023-04-28T00:13:39.573Z,7.00
2023-04-28T00:16:07.996Z,7.04
2023-04-28T00:18:36.142Z,7.07
2023-04-28T00:21:05.044Z,7.10
2023-04-28T00:23:33.202Z,7.12
2023-04-28T00:26:01.582Z,7.15
2023-04-28T00:28:34.492Z,7.18
2023-04-28T00:31:10.741Z,7.23
2023-04-28T00:33:40.026Z,7.30
2023-04-28T00:36:08.811Z,7.36
2023-04-28T00:38:38.631Z,7.39
2023-04-28T00:41:06.996Z,7.28
2023-04-28T00:43:47.872Z,6.70
2023-04-28T00:46:25.567Z,5.98
2023-04-28T00:48:53.740Z,5.40
2023-04-28T00:51:21.922Z,4.94
2023-04-28T00:53:51.711Z,4.64
2023-04-28T00:56:19.992Z,4.90
2023-04-28T00:58:48.266Z,5.38
2023-04-28T01:01:18.255Z,5.82
2023-04-28T01:03:46.885Z,6.14
2023-04-28T01:06:16.879Z,6.41
2023-04-28T01:08:49.148Z,6.67
2023-04-28T01:11:17.874Z,6.90
2023-04-28T01:13:59.731Z,7.10
2023-04-28T01:16:28.685Z,7.26
2023-04-28T01:18:58.527Z,7.33
2023-04-28T01:21:30.465Z,7.55
2023-04-28T01:23:59.893Z,7.71
2023-04-28T01:26:28.069Z,7.84
2023-04-28T01:28:56.252Z,7.95
2023-04-28T01:31:25.703Z,8.07
2023-04-28T01:33:53.911Z,8.18
2023-04-28T01:36:23.926Z,8.29
2023-04-28T01:38:53.234Z,8.38
2023-04-28T01:41:21.394Z,8.29
2023-04-28T01:43:49.810Z,7.67
2023-04-28T01:46:17.981Z,6.97
2023-04-28T01:48:46.228Z,6.39
2023-04-28T01:51:14.391Z,5.91
2023-04-28T01:53:43.073Z,5.48
2023-04-28T01:56:11.352Z,5.21
2023-04-28T01:58:40.052Z,5.52
2023-04-28T02:01:08.661Z,6.05
2023-04-28T02:03:37.264Z,6.48
2023-04-28T02:06:06.292Z,6.83
2023-04-28T02:08:34.462Z,7.14
2023-04-28T02:11:04.271Z,7.42
2023-04-28T02:13:32.343Z,7.68
2023-04-28T02:16:02.265Z,7.90
2023-04-28T02:18:30.739Z,8.08
2023-04-28T02:21:12.344Z,8.21
2023-04-28T02:23:41.137Z,8.35
2023-04-28T02:26:09.279Z,8.50
2023-04-28T02:28:37.458Z,8.65
2023-04-28T02:31:08.918Z,8.78
2023-04-28T02:33:38.131Z,8.77
2023-04-28T02:36:07.777Z,8.14
2023-04-28T02:38:36.084Z,7.42
2023-04-28T02:41:05.689Z,6.83
2023-04-28T02:43:34.308Z,6.32
2023-04-28T02:46:05.923Z,5.87
2023-04-28T02:48:37.695Z,5.62
2023-04-28T02:51:05.967Z,5.94
2023-04-28T02:53:34.330Z,6.32
2023-04-28T02:56:04.681Z,6.60
2023-04-28T02:58:33.557Z,6.78
2023-04-28T03:01:02.319Z,6.90
2023-04-28T03:03:30.754Z,7.02
2023-04-28T03:05:59.504Z,7.14
2023-04-28T03:08:27.869Z,7.26
2023-04-28T03:10:56.765Z,7.35
2023-04-28T03:13:25.662Z,7.48
2023-04-28T03:15:53.983Z,7.64
2023-04-28T03:18:22.812Z,7.77
2023-04-28T03:20:51.193Z,7.88
2023-04-28T03:23:19.258Z,7.96
2023-04-28T03:25:47.336Z,8.04
2023-04-28T03:28:16.427Z,8.14
2023-04-28T03:30:44.594Z,8.21
2023-04-28T03:33:12.867Z,8.21
2023-04-28T03:35:43.309Z,8.20
2023-04-28T03:38:11.780Z,8.21
2023-04-28T03:40:40.254Z,8.25
2023-04-28T03:43:14.477Z,8.28
2023-04-28T03:46:18.254Z,8.36
2023-04-28T03:48:46.851Z,8.46
2023-04-28T03:51:15.338Z,8.54
2023-04-28T03:53:43.814Z,8.61
2023-04-28T03:56:11.986Z,8.68
2023-04-28T03:58:41.286Z,8.76
2023-04-28T04:01:09.363Z,8.85
2023-04-28T04:03:37.803Z,8.96
2023-04-28T04:06:06.743Z,9.05
2023-04-28T04:08:35.013Z,9.15
2023-04-28T04:11:03.581Z,9.26
2023-04-28T04:13:33.413Z,9.38
2023-04-28T04:16:04.278Z,9.48
2023-04-28T04:18:32.705Z,9.60
2023-04-28T04:21:16.240Z,9.73
2023-04-28T04:23:44.555Z,9.84
2023-04-28T04:26:13.608Z,9.94
2023-04-28T04:28:41.779Z,10.03
2023-04-28T04:31:10.791Z,10.15
2023-04-28T04:33:38.953Z,10.13
2023-04-28T04:36:08.135Z,9.57
2023-04-28T04:38:36.322Z,8.94
2023-04-28T04:41:26.500Z,8.39
2023-04-28T04:44:04.824Z,7.99
2023-04-28T04:46:37.556Z,7.66
2023-04-28T04:49:05.864Z,7.47
2023-04-28T04:51:34.149Z,7.82
2023-04-28T04:54:02.310Z,8.27
2023-04-28T04:56:31.914Z,8.66
2023-04-28T04:59:00.498Z,8.96
2023-04-28T05:01:54.500Z,9.23
2023-04-28T05:04:23.149Z,9.43
2023-04-28T05:06:51.850Z,9.62
2023-04-28T05:09:20.427Z,9.81
2023-04-28T05:11:48.600Z,9.97
2023-04-28T05:14:18.106Z,10.15
2023-04-28T05:16:46.641Z,10.31
2023-04-28T05:19:18.032Z,10.47
2023-04-28T05:21:48.012Z,10.50
2023-04-28T05:24:16.734Z,10.10
2023-04-28T05:26:45.214Z,9.64
2023-04-28T05:29:13.916Z,9.27
2023-04-28T05:31:42.404Z,8.96
2023-04-28T05:34:11.239Z,8.73
2023-04-28T05:36:39.650Z,8.53
2023-04-28T05:39:09.758Z,8.43
2023-04-28T05:41:39.670Z,8.88
2023-04-28T05:44:08.060Z,9.45
2023-04-28T05:46:37.122Z,9.93
2023-04-28T05:49:05.826Z,10.30
2023-04-28T05:51:37.485Z,10.64
2023-04-28T05:54:05.653Z,10.96
2023-04-28T05:56:37.917Z,11.28
2023-04-28T05:59:06.099Z,11.43
2023-04-28T06:01:34.275Z,11.08
2023-04-28T06:04:02.698Z,10.63
2023-04-28T06:06:32.452Z,10.30
2023-04-28T06:09:00.832Z,10.03
2023-04-28T06:11:29.134Z,9.83
2023-04-28T06:13:57.274Z,9.65
2023-04-28T06:16:26.869Z,9.49
2023-04-28T06:18:55.061Z,9.36
2023-04-28T06:21:25.074Z,9.26
2023-04-28T06:23:53.298Z,9.18
2023-04-28T06:26:21.836Z,9.13
2023-04-28T06:28:51.154Z,9.23
2023-04-28T06:31:19.311Z,9.86
2023-04-28T06:33:47.576Z,10.66
2023-04-28T06:36:18.097Z,11.19
2023-04-28T06:38:46.783Z,11.07
2023-04-28T06:41:14.956Z,10.78
2023-04-28T06:43:48.661Z,10.53
2023-04-28T06:46:22.714Z,10.34
2023-04-28T06:48:51.047Z,10.19
2023-04-28T06:51:19.320Z,10.05
2023-04-28T06:53:47.590Z,9.94
2023-04-28T06:56:15.763Z,9.86
2023-04-28T06:58:43.939Z,9.83
2023-04-28T07:01:12.004Z,9.82
2023-04-28T07:03:40.451Z,9.83
2023-04-28T07:06:09.174Z,9.87
2023-04-28T07:08:37.340Z,9.91
2023-04-28T07:11:06.513Z,9.96
2023-04-28T07:13:34.715Z,10.02
2023-04-28T07:16:04.969Z,10.08
2023-04-28T07:18:33.105Z,10.15
2023-04-28T07:21:02.311Z,10.22
2023-04-28T07:23:32.475Z,10.32
2023-04-28T07:26:00.589Z,10.42
2023-04-28T07:28:28.768Z,10.52
2023-04-28T07:30:57.766Z,10.62
2023-04-28T07:33:25.934Z,10.69
2023-04-28T07:35:54.311Z,10.75
2023-04-28T07:38:22.580Z,10.81
2023-04-28T07:43:23.743Z,10.97
2023-04-28T07:45:51.925Z,11.07
2023-04-28T07:48:20.347Z,11.20
2023-04-28T07:50:48.558Z,11.33
2023-04-28T07:53:17.047Z,11.42
2023-04-28T07:55:46.141Z,11.51
2023-04-28T07:58:14.307Z,11.62
2023-04-28T08:00:42.574Z,11.70
2023-04-28T08:03:11.273Z,11.79
2023-04-28T08:05:40.140Z,11.92
2023-04-28T08:08:08.431Z,12.07
2023-04-28T08:10:36.596Z,12.20
2023-04-28T08:13:04.667Z,12.33
2023-04-28T08:15:32.756Z,12.45
2023-04-28T08:18:00.939Z,12.51
2023-04-28T08:20:30.413Z,12.55
2023-04-28T08:22:59.401Z,12.66
2023-04-28T08:25:27.783Z,12.81
2023-04-28T08:27:57.591Z,12.95
2023-04-28T08:30:25.864Z,13.04
2023-04-28T08:32:54.317Z,13.12
2023-04-28T08:35:22.826Z,13.25
2023-04-28T08:37:53.045Z,13.41
2023-04-28T08:40:21.318Z,13.57
2023-04-28T08:42:50.324Z,13.74
2023-04-28T08:45:18.485Z,13.89
2023-04-28T08:47:49.921Z,14.00
2023-04-28T08:50:23.117Z,14.09
2023-04-28T08:52:52.804Z,14.14
2023-04-28T08:55:21.511Z,14.19
2023-04-28T08:57:51.960Z,14.27
2023-04-28T09:00:20.125Z,14.36
2023-04-28T09:02:48.405Z,14.44
2023-04-28T09:05:16.986Z,14.56
2023-04-28T09:07:49.085Z,14.69
2023-04-28T09:10:24.685Z,14.75
2023-04-28T09:12:54.797Z,14.83
2023-04-28T09:15:41.576Z,14.95
2023-04-28T09:18:14.864Z,15.09
2023-04-28T09:20:44.810Z,15.16
2023-04-28T09:23:19.987Z,15.28
2023-04-28T09:26:00.130Z,15.41
2023-04-28T09:28:28.792Z,15.50
2023-04-28T09:30:57.337Z,15.54
2023-04-28T09:33:25.901Z,15.60
2023-04-28T09:35:54.705Z,15.73
2023-04-28T09:38:23.629Z,15.87
2023-04-28T09:41:03.053Z,16.03
2023-04-28T09:43:33.485Z,16.20
2023-04-28T09:46:04.123Z,16.36
2023-04-28T09:48:36.792Z,16.53
2023-04-28T09:51:06.822Z,16.67
2023-04-28T09:53:36.149Z,16.80
2023-04-28T09:56:05.530Z,16.95
2023-04-28T09:58:35.469Z,17.14
2023-04-28T10:01:04.796Z,17.31
2023-04-28T10:03:33.116Z,17.49
2023-04-28T10:06:02.420Z,17.71
2023-04-28T10:08:30.566Z,18.00
2023-04-28T10:10:59.047Z,18.32
2023-04-28T10:13:27.328Z,18.66
2023-04-28T10:15:55.930Z,19.02
2023-04-28T10:18:25.229Z,19.33
2023-04-28T10:20:59.938Z,19.55
2023-04-28T10:23:38.548Z,19.77
2023-04-28T10:26:11.845Z,19.92
2023-04-28T10:28:50.872Z,19.98
2023-04-28T10:31:23.530Z,20.05
2023-04-28T10:33:51.725Z,20.28
2023-04-28T10:36:48.876Z,20.55
2023-04-28T10:39:17.172Z,20.87
2023-04-28T10:41:49.310Z,21.18
2023-04-28T10:44:33.359Z,21.41
2023-04-28T10:47:11.669Z,21.63
2023-04-28T10:50:12.429Z,21.88
2023-04-28T10:52:48.779Z,22.01
2023-04-28T10:55:36.579Z,22.10
2023-04-28T10:58:17.566Z,22.27
2023-04-28T11:00:48.814Z,22.47
2023-04-28T11:03:39.315Z,22.67
2023-04-28T11:06:21.310Z,22.85
2023-04-28T11:08:49.585Z,23.05
2023-04-28T11:11:22.361Z,23.30
2023-04-28T11:13:51.360Z,23.44
2023-04-28T11:16:21.717Z,23.50
2023-04-28T11:18:55.711Z,23.56
2023-04-28T11:21:25.390Z,23.76
2023-04-28T11:23:53.465Z,23.90
2023-04-28T11:26:21.628Z,23.95
2023-04-28T11:28:51.477Z,24.10
2023-04-28T11:31:22.556Z,24.25
2023-04-28T11:34:17.582Z,24.35
2023-04-28T11:36:45.659Z,24.26
2023-04-28T11:39:14.336Z,24.03
2023-04-28T11:41:46.092Z,23.95
2023-04-28T11:44:15.595Z,24.16
2023-04-28T11:46:56.442Z,24.43
2023-04-28T11:49:25.479Z,24.64
2023-04-28T11:51:53.833Z,24.73
2023-04-28T11:54:23.577Z,24.70
2023-04-28T11:56:53.326Z,24.87
2023-04-28T11:59:35.621Z,25.31
2023-04-28T12:02:07.383Z,25.78
2023-04-28T12:04:38.106Z,25.98
2023-04-28T12:07:15.946Z,26.07
2023-04-28T12:09:46.399Z,26.07
2023-04-28T12:12:39.989Z,26.07
2023-04-28T12:15:09.760Z,25.90
2023-04-28T12:17:39.501Z,25.78
2023-04-28T12:20:12.971Z,25.74
2023-04-28T12:22:46.971Z,25.48
2023-04-28T12:25:22.368Z,25.28
2023-04-28T12:28:00.205Z,25.05
2023-04-28T12:30:29.417Z,24.64
2023-04-28T12:32:58.206Z,24.50
2023-04-28T12:35:28.205Z,24.49
2023-04-28T12:37:58.688Z,24.38
2023-04-28T12:40:27.369Z,24.19
2023-04-28T12:42:55.540Z,24.10
2023-04-28T12:45:23.868Z,24.02
2023-04-28T12:47:52.189Z,23.91
2023-04-28T12:50:20.517Z,23.92
2023-04-28T12:52:48.692Z,24.08
2023-04-28T12:55:17.068Z,24.25
2023-04-28T12:57:45.236Z,24.45
2023-04-28T13:00:16.488Z,24.72
2023-04-28T13:02:46.053Z,24.96
2023-04-28T13:05:14.768Z,25.02
2023-04-28T13:07:43.966Z,25.05
2023-04-28T13:10:13.165Z,25.20
2023-04-28T13:12:41.849Z,25.19
2023-04-28T13:15:11.147Z,25.06
2023-04-28T13:17:39.988Z,24.97
2023-04-28T13:20:09.116Z,24.91
2023-04-28T13:22:37.412Z,24.86
2023-04-28T13:25:06.296Z,24.95
2023-04-28T13:27:34.366Z,25.21
2023-04-28T13:30:04.215Z,25.49
2023-04-28T13:32:32.588Z,25.72
2023-04-28T13:35:00.825Z,25.91
2023-04-28T13:37:28.903Z,25.95
2023-04-28T13:39:58.298Z,25.96
2023-04-28T13:42:26.476Z,25.94
2023-04-28T13:44:54.949Z,25.82
2023-04-28T13:47:23.015Z,25.72
2023-04-28T13:49:51.813Z,25.75
2023-04-28T13:52:20.692Z,25.80
2023-04-28T13:54:49.031Z,25.68
2023-04-28T13:57:17.545Z,25.43
2023-04-28T13:59:46.024Z,25.24
2023-04-28T14:02:14.122Z,25.10
2023-04-28T14:04:48.881Z,25.09
2023-04-28T14:07:17.610Z,25.20
2023-04-28T14:09:46.314Z,25.30
2023-04-28T14:12:15.756Z,25.36
2023-04-28T14:14:44.215Z,25.34
2023-04-28T14:17:12.757Z,25.24
2023-04-28T14:19:40.845Z,25.12
2023-04-28T14:22:09.309Z,24.92
2023-04-28T14:24:37.683Z,24.64
2023-04-28T14:27:05.849Z,24.33
2023-04-28T14:29:33.920Z,24.08
2023-04-28T14:32:02.405Z,23.94
2023-04-28T14:34:30.572Z,23.76
2023-04-28T14:36:58.846Z,23.49
2023-04-28T14:39:27.022Z,23.29
2023-04-28T14:41:55.396Z,23.22
2023-04-28T14:44:23.463Z,23.19
2023-04-28T14:46:51.946Z,23.13
2023-04-28T14:49:20.029Z,22.97
2023-04-28T14:51:49.751Z,22.78
2023-04-28T14:54:17.816Z,22.64
2023-04-28T14:56:45.966Z,22.55
2023-04-28T14:59:14.446Z,22.52
2023-04-28T15:01:43.867Z,22.62
2023-04-28T15:04:12.633Z,22.82
2023-04-28T15:06:40.838Z,23.07
2023-04-28T15:09:08.979Z,23.25
2023-04-28T15:11:37.154Z,23.40
2023-04-28T15:14:05.429Z,23.66
2023-04-28T15:16:33.547Z,23.93
2023-04-28T15:19:01.914Z,24.05
2023-04-28T15:21:30.044Z,24.05
2023-04-28T15:23:59.852Z,23.97
2023-04-28T15:26:30.002Z,23.95
2023-04-28T15:28:59.380Z,23.89
2023-04-28T15:31:28.446Z,23.88
2023-04-28T15:33:57.257Z,24.03
2023-04-28T15:36:25.426Z,24.08
2023-04-28T15:38:53.600Z,24.03
2023-04-28T15:41:22.076Z,23.91
2023-04-28T15:43:50.870Z,23.81
2023-04-28T15:46:19.089Z,23.80
2023-04-28T15:48:47.424Z,23.78
2023-04-28T15:51:15.489Z,23.66
2023-04-28T15:53:43.553Z,23.56
2023-04-28T15:56:11.734Z,23.45
2023-04-28T15:58:39.998Z,23.34
2023-04-28T16:01:08.931Z,23.17
2023-04-28T16:03:37.375Z,22.97
2023-04-28T16:06:06.874Z,22.79
2023-04-28T16:08:38.018Z,22.53
2023-04-28T16:11:06.419Z,22.26
2023-04-28T16:13:37.237Z,21.97
2023-04-28T16:16:07.267Z,21.62
2023-04-28T16:18:36.748Z,21.28
2023-04-28T16:21:05.140Z,20.99
2023-04-28T16:23:33.614Z,20.69
2023-04-28T16:26:01.788Z,20.43
2023-04-28T16:28:30.163Z,20.18
2023-04-28T16:30:58.333Z,19.97
2023-04-28T16:33:26.399Z,19.79
2023-04-28T16:35:57.292Z,19.65
2023-04-28T16:38:25.403Z,19.50
2023-04-28T16:40:53.785Z,19.37
2023-04-28T16:43:22.258Z,19.25
2023-04-28T16:45:50.359Z,19.10
2023-04-28T16:48:19.218Z,18.95
2023-04-28T16:50:47.399Z,18.80
2023-04-28T16:53:15.565Z,18.67
2023-04-28T16:55:43.641Z,18.54
2023-04-28T16:58:11.703Z,18.42
2023-04-28T17:00:39.974Z,18.31
2023-04-28T17:03:08.319Z,18.21
2023-04-28T17:05:36.941Z,18.10
2023-04-28T17:08:05.207Z,17.99
2023-04-28T17:10:33.392Z,17.90
2023-04-28T17:13:01.459Z,17.80
2023-04-28T17:15:29.657Z,17.72
2023-04-28T17:17:58.168Z,17.65
2023-04-28T17:20:26.487Z,17.57
2023-04-28T17:22:54.970Z,17.49
2023-04-28T17:25:24.171Z,17.39
2023-04-28T17:27:52.330Z,17.28
2023-04-28T17:30:20.605Z,17.18
2023-04-28T17:32:48.907Z,17.08
2023-04-28T17:35:17.273Z,17.00
2023-04-28T17:37:45.633Z,16.92
2023-04-28T17:40:14.123Z,16.83
2023-04-28T17:42:43.398Z,16.74
2023-04-28T17:45:12.095Z,16.66
2023-04-28T17:47:40.194Z,16.57
2023-04-28T17:50:09.135Z,16.50
2023-04-28T17:52:37.635Z,16.43
2023-04-28T17:55:06.630Z,16.36
2023-04-28T17:57:35.011Z,16.31
2023-04-28T18:00:03.492Z,16.24
2023-04-28T18:02:40.075Z,16.17
2023-04-28T18:05:09.207Z,16.10
2023-04-28T18:07:38.034Z,16.01
2023-04-28T18:10:06.509Z,15.94
2023-04-28T18:12:34.691Z,15.86
2023-04-28T18:15:03.161Z,15.77
2023-04-28T18:17:33.233Z,15.69
2023-04-28T18:20:01.395Z,15.63
2023-04-28T18:22:29.629Z,15.58
2023-04-28T18:24:58.732Z,15.52
2023-04-28T18:27:27.100Z,15.48
2023-04-28T18:29:56.295Z,15.44
2023-04-28T18:32:24.399Z,15.40
2023-04-28T18:34:52.674Z,15.38
2023-04-28T18:37:20.813Z,15.35
2023-04-28T18:39:48.879Z,15.31
2023-04-28T18:42:16.950Z,15.27
2023-04-28T18:44:45.022Z,15.23
2023-04-28T18:47:13.197Z,15.19
2023-04-28T18:49:41.432Z,15.15
2023-04-28T18:52:09.642Z,15.11
2023-04-28T18:54:38.017Z,15.08
2023-04-28T18:57:06.913Z,15.03
2023-04-28T18:59:34.981Z,15.00
2023-04-28T19:02:04.076Z,14.98
2023-04-28T19:04:32.413Z,14.95
2023-04-28T19:07:00.823Z,14.91
2023-04-28T19:09:28.892Z,14.88
2023-04-28T19:11:56.966Z,14.85
2023-04-28T19:14:25.133Z,14.80
2023-04-28T19:16:53.553Z,14.75
2023-04-28T19:19:21.903Z,14.72
2023-04-28T19:21:51.094Z,14.68
2023-04-28T19:24:19.363Z,14.64
2023-04-28T19:26:47.533Z,14.61
2023-04-28T19:29:17.392Z,14.57
2023-04-28T19:31:45.933Z,14.54
2023-04-28T19:34:14.104Z,14.50
2023-04-28T19:36:42.174Z,14.47
2023-04-28T19:39:10.342Z,14.42
2023-04-28T19:41:38.729Z,14.38
2023-04-28T19:44:06.787Z,14.34
2023-04-28T19:46:35.961Z,14.31
2023-04-28T19:49:04.465Z,14.28
2023-04-28T19:51:33.251Z,14.25
2023-04-28T19:54:01.849Z,14.21
2023-04-28T19:56:30.940Z,14.17
2023-04-28T19:58:59.405Z,14.14
2023-04-28T20:01:27.638Z,14.10
2023-04-28T20:03:55.951Z,14.06
2023-04-28T20:06:24.332Z,14.02
2023-04-28T20:08:53.030Z,13.98
2023-04-28T20:11:21.186Z,13.93
2023-04-28T20:13:49.567Z,13.88
2023-04-28T20:16:20.589Z,13.83
2023-04-28T20:18:48.897Z,13.78
2023-04-28T20:21:17.779Z,13.73
2023-04-28T20:23:45.943Z,13.68
2023-04-28T20:26:15.653Z,13.63
2023-04-28T20:28:46.694Z,13.58
2023-04-28T20:31:15.414Z,13.53
2023-04-28T20:33:43.546Z,13.48
2023-04-28T20:36:13.079Z,13.42
2023-04-28T20:38:43.168Z,13.38
2023-04-28T20:41:11.360Z,13.33
2023-04-28T20:43:39.512Z,13.29
2023-04-28T20:46:11.199Z,13.23
2023-04-28T20:48:40.262Z,13.16
2023-04-28T20:51:08.429Z,13.08
2023-04-28T20:53:38.423Z,13.01
2023-04-28T20:56:06.826Z,12.95
2023-04-28T20:58:35.611Z,12.89
2023-04-28T21:01:03.833Z,12.82
2023-04-28T21:03:32.018Z,12.78
2023-04-28T21:06:00.539Z,12.72
2023-04-28T21:08:30.348Z,12.66
2023-04-28T21:10:58.522Z,12.69
2023-04-28T21:13:26.615Z,13.18
2023-04-28T21:15:54.868Z,13.74
2023-04-28T21:18:23.038Z,14.20
2023-04-28T21:20:51.414Z,14.48
2023-04-28T21:23:19.898Z,14.61
2023-04-28T21:25:48.064Z,14.29
2023-04-28T21:28:16.546Z,13.90
2023-04-28T21:30:44.724Z,13.55
2023-04-28T21:33:12.993Z,13.27
2023-04-28T21:35:41.268Z,13.03
2023-04-28T21:38:11.094Z,12.81
2023-04-28T21:40:39.353Z,12.68
2023-04-28T21:43:08.445Z,13.01
2023-04-28T21:45:36.640Z,13.42
2023-04-28T21:48:06.490Z,13.75
2023-04-28T21:50:36.454Z,13.99
2023-04-28T21:53:04.514Z,14.18
2023-04-28T21:55:32.724Z,14.36
2023-04-28T21:58:00.960Z,14.52
2023-04-28T22:00:29.240Z,14.56
2023-04-28T22:02:57.810Z,14.12
2023-04-28T22:05:26.195Z,13.60
2023-04-28T22:07:54.390Z,13.18
2023-04-28T22:10:22.953Z,12.83
2023-04-28T22:12:51.119Z,12.52
2023-04-28T22:15:19.433Z,12.23
2023-04-28T22:17:47.928Z,12.08
2023-04-28T22:20:16.151Z,12.41
2023-04-28T22:22:44.222Z,12.79
2023-04-28T22:25:12.513Z,13.09
2023-04-28T22:27:40.772Z,13.30
2023-04-28T22:30:10.078Z,13.51
2023-04-28T22:32:38.283Z,13.69
2023-04-28T22:35:07.010Z,13.86
2023-04-28T22:37:36.634Z,14.04
2023-04-28T22:40:07.959Z,14.20
2023-04-28T22:42:37.489Z,14.34
2023-04-28T22:45:06.936Z,14.38
2023-04-28T22:47:35.226Z,13.94
2023-04-28T22:50:07.017Z,13.45
2023-04-28T22:52:35.296Z,13.03
2023-04-28T22:55:03.668Z,12.68
2023-04-28T22:57:31.849Z,12.46
2023-04-28T23:00:00.226Z,12.72
2023-04-28T23:02:28.946Z,13.03
2023-04-28T23:04:57.592Z,13.28
2023-04-28T23:07:26.072Z,13.44
2023-04-28T23:09:54.251Z,13.56
2023-04-28T23:12:22.622Z,13.65
2023-04-28T23:14:50.689Z,13.74
2023-04-28T23:17:19.021Z,13.82
2023-04-28T23:19:47.131Z,13.90
2023-04-28T23:22:15.210Z,13.86
2023-04-28T23:24:43.480Z,13.37
2023-04-28T23:27:12.262Z,12.81
2023-04-28T23:29:40.437Z,12.34
2023-04-28T23:32:08.768Z,11.92
2023-04-28T23:34:38.418Z,11.64
2023-04-28T23:37:06.793Z,11.80
2023-04-28T23:39:34.863Z,12.09
2023-04-28T23:42:03.035Z,12.34
2023-04-28T23:44:31.210Z,12.53
2023-04-28T23:46:59.493Z,12.71
2023-04-28T23:49:27.551Z,12.86
2023-04-28T23:51:55.931Z,13.02
2023-04-28T23:54:23.999Z,13.18
2023-04-28T23:56:52.184Z,13.31
2023-04-28T23:59:20.368Z,13.42
